Decoded Metar for KJNX (SMITHFIELD JOHNS in NC, USA) (IATA:JNX) | Meteo·Mobile Aviation Weather
aviador You're here:

KJNX Decoded Metar

SMITHFIELD JOHNS in NC, USA
Report Time2018-11-18 01:25:00
UTC Time2018-11-18 01:34:48
Flight Rules mvfr MVFR
WindCalm
Visibility8047 m
Phenomena:Mist
Clouds:N/A
CeilingNone
Temp04°C (ISA -11)
Dew Point04°C (100% RH)
AAT2.7°C
QNH1025 hPa
Density Alt-1,427 ft
Elevation164 ft
Report Wrong Elevation
Raw Report
KJNX 180125Z AUTO 00000KT 5SM BR CLR 04/04 A3028 RMK AO2=

Extra information for KJNX:More info

Metar Taf Metar & Taf Last 4 Metars F.Rules Stats Wind Profile Meteogram Temp Stats Airport Information Weather charts Add Link Nearby VenuesMetar ALERT Operation Metar Decoded Social comments

AIRNAV info for KJNX